Participated 1 time
in 2009
Jussi Veikkanen, Finland
Tour de France 2026 starts from Barcelona, Spain in

Stats and Facts from
Tour de France.

2026   2025   2024   2023  2022  2021  2020  2019   2018  2017   2016   2015  2014  2013   2012   2011  2010   2009   2008   2007   2006   2005   2004   2003   2002   2001   2000   1999   1998   1997  1996   1995   1994   1993   1992  1991   1990   1989   1988   1987   1986   1985   1984   1983  1982  1981   1980   1979  1978  1977   1976  1975  1974  1973   1972   1971   1970  1969   1968   1967   1966   1965  1964  1963   1962   1961   1960   1959   1958   1957  1956   1955   1954   1953   1952  1951  1950  1949   1948  1947  1939   1938   1937   1936   1935   1934   1933  1932   1931   1930  1929   1928   1927   1926  1925  1924  1923   1922   1921   1920   1919  1914   1913   1912   1911   1910  1909   1908   1907   1906  1905  1904   1903 

Tourstats
Sitemap

After stage 21 - 2025:
 16451 starters.
  5464 different riders.
  689 teams.
  2398 stages.
  470 restdays.
  466506.50 km.
  5925 abandoned riders.

Click map for 1952 route.
Facts from Tour de France 1952 Additional info and images from 1952.
  |   Stages.  |   Stage winners.  |   Days in jerseys.  |   Teams.  |   All riders.  |   All riders by age.  |   All riders from.  |  

  |   Rookies.  |   Withdrawls.  |   Average speed.  |   GC.  |   Polka  |   Green  |   White  |   Summits. (In tour)  |   Miscellaneous.  |  

Stage 18 on July 14th. 1952
Pick a stage:  1  2  3  4  5  6  7  8  9  10  11  12  13  14  15  16  17  18  19  20  21  22  23  

After stage 18:    Fausto Coppi  
  Bagnères-de-BigorrePau | Dist: 149.00km. | Winner: Fausto Coppi

Podium
1  Col du Tourmalet Fausto Coppiafter28.00 km.

1  Col de l'Aubisque Fausto Coppiafter94.00 km.


Average speed for all riders in stage:  30,199 km./hr.

1
 Fausto Coppi  Italy04h 42' 04"=31,695  km/h

2
 Stan Ockers  Belgium04h 42' 08"+  00:00:04 =31,687  km/h

3
 Jean Robic  France04h 42' 08"+  00:00:04 =31,687  km/h

4  Bernardo Ruíz  Spain04h 42' 11"+  00:00:07 =31,682  km/h

5  Gilbert Bauvin  Nord Est-Centre04h 42' 15"+  00:00:11 =31,674  km/h

6  Antonio Gelabert  Spain04h 46' 17"+  00:04:13 =31,228  km/h

7  Jan Nolten  Holland04h 46' 17"+  00:04:13 =31,228  km/h

8  Adolphe Deledda  Nord Est-Centre04h 46' 17"+  00:04:13 =31,228  km/h

9  Jean De Gribaldy  Nord Est-Centre04h 46' 17"+  00:04:13 =31,228  km/h

10  Eduard Van Ende  Belgium04h 46' 17"+  00:04:13 =31,228  km/h

11  Gino Bartali  Italy04h 46' 17"+  00:04:13 =31,228  km/h

12  Alexandre Close  Belgium04h 46' 17"+  00:04:13 =31,228  km/h

13  Fiorenzo Magni  Italy04h 46' 17"+  00:04:13 =31,228  km/h

14  Siro Bianchi  Sud Est04h 46' 17"+  00:04:13 =31,228  km/h

15  Carlo Lafranchi  Switzerland04h 47' 24"+  00:05:20 =31,106  km/h

16  Jean Delahaye  Ouest-Sud Ouest04h 47' 27"+  00:05:23 =31,101  km/h

17  Nello Lauredi  France04h 47' 40"+  00:05:36 =31,078  km/h

18  Maurice Quentin  France04h 47' 40"+  00:05:36 =31,078  km/h

19  Jean Bertaina  Sud Est04h 47' 40"+  00:05:36 =31,078  km/h

20  Henri Paret  North Africa04h 48' 51"+  00:06:47 =30,950  km/h

21  Raphaël Geminiani  France04h 49' 33"+  00:07:29 =30,875  km/h

22  Jean-Baptiste Dotto  France04h 49' 33"+  00:07:29 =30,875  km/h

23  Heinrich Spuhler  Switzerland04h 50' 47"+  00:08:43 =30,745  km/h

24  Walter Diggelmann  Switzerland04h 50' 47"+  00:08:43 =30,745  km/h

25  Hein Van Breenen  Holland04h 50' 47"+  00:08:43 =30,745  km/h

26  Robert Bonnaventure  France04h 50' 47"+  00:08:43 =30,745  km/h

27  Marcel Zelasco  North Africa04h 52' 31"+  00:10:27 =30,562  km/h

28  Hans Dekkers  Holland04h 52' 31"+  00:10:27 =30,562  km/h

29  Roger Decock  Belgium04h 52' 31"+  00:10:27 =30,562  km/h

30  Andrea Carrea  Italy04h 52' 31"+  00:10:27 =30,562  km/h

31  Luciano Pezzi  Italy04h 52' 31"+  00:10:27 =30,562  km/h

32  Alois De Hertog  Belgium04h 52' 31"+  00:10:27 =30,562  km/h

33  Andrès Trobat  Spain04h 52' 31"+  00:10:27 =30,562  km/h

34  Jacques Vivier  Ouest-Sud Ouest04h 56' 57"+  00:14:53 =30,106  km/h

35  Raymond Scardin  Ouest-Sud Ouest04h 56' 57"+  00:14:53 =30,106  km/h

36  Antonin Rolland  France04h 59' 49"+  00:17:45 =29,818  km/h

37  Marcel Fernandez  North Africa04h 59' 49"+  00:17:45 =29,818  km/h

38  Lucien Teisseire  France04h 59' 49"+  00:17:45 =29,818  km/h

39  Alfredo Martini  Italy05h 00' 44"+  00:18:40 =29,727  km/h

40  Mario Baroni  Italy05h 00' 44"+  00:18:40 =29,727  km/h

41  Ettore Milano  Italy05h 00' 44"+  00:18:40 =29,727  km/h

42  José Gil Sole  Spain05h 00' 44"+  00:18:40 =29,727  km/h

42  Settimo Sabbadini  Ouest-Sud Ouest05h 01' 16"+  00:19:12 =29,675  km/h

42  Jean Le Guilly  Ouest-Sud Ouest05h 01' 16"+  00:19:12 =29,675  km/h

42  Lucien Lazarides  France05h 01' 16"+  00:19:12 =29,675  km/h

42  André Bernard  Ouest-Sud Ouest05h 01' 16"+  00:19:12 =29,675  km/h

42  Wout Wagtmans  Holland05h 01' 33"+  00:19:29 =29,647  km/h

42  Gerrit Voorting  Holland05h 01' 33"+  00:19:29 =29,647  km/h

42  Vincent Vitetta  Sud Est05h 01' 33"+  00:19:29 =29,647  km/h

42  Raoul Remy  France05h 01' 33"+  00:19:29 =29,647  km/h

42  Francisco Masip  Spain05h 01' 33"+  00:19:29 =29,647  km/h

42  Jacques Marinelli  Paris05h 01' 33"+  00:19:29 =29,647  km/h

42  Giovanni Corrieri  Italy05h 01' 33"+  00:19:29 =29,647  km/h

42  Gottfried Weilenmann  Switzerland05h 01' 33"+  00:19:29 =29,647  km/h

42  Georges Decaux  Paris05h 01' 33"+  00:19:29 =29,647  km/h

56  Giuseppe Mirando  Sud Est05h 01' 33"+  00:19:29 =29,647  km/h

57  Rene Rotta  Sud Est05h 01' 33"+  00:19:29 =29,647  km/h

58  Wim van Est  Holland05h 01' 33"+  00:19:29 =29,647  km/h

59  Jean Goldschmit  Luxembourg05h 01' 33"+  00:19:29 =29,647  km/h

60  Paul Giguet  Sud Est05h 01' 33"+  00:19:29 =29,647  km/h

61  Ahmed Kebaïli  North Africa05h 01' 33"+  00:19:29 =29,647  km/h

62  Adolphe Pezzuli  Sud Est05h 01' 33"+  00:19:29 =29,647  km/h

63  Jacques Renaud  Paris05h 01' 33"+  00:19:29 =29,647  km/h

64  Pierre Pardoën  Nord Est-Centre05h 01' 33"+  00:19:29 =29,647  km/h

65  Eugène Telotte  Paris05h 01' 33"+  00:19:29 =29,647  km/h

66  Giulio Bresci  Italy05h 01' 33"+  00:19:29 =29,647  km/h

67  Maurice Neyt  Belgium05h 01' 33"+  00:19:29 =29,647  km/h

68  Fiorenzo Crippa  Italy05h 01' 33"+  00:19:29 =29,647  km/h

69  Bernard Gauthier  France05h 01' 33"+  00:19:29 =29,647  km/h

70  Franco Franchi  Italy05h 01' 33"+  00:19:29 =29,647  km/h

71  José Serra Gil  Spain05h 01' 33"+  00:19:29 =29,647  km/h

72  André Rosseel  Belgium05h 01' 33"+  00:19:29 =29,647  km/h

73  Jean Malléjac  Ouest-Sud Ouest05h 01' 49"+  00:19:45 =29,621  km/h

74  Roger Rossinelli  Nord Est-Centre05h 06' 36"+  00:24:32 =29,159  km/h

75  Johny Goedert  Luxembourg05h 07' 39"+  00:25:35 =29,059  km/h

76  Thijs Roks  Holland05h 09' 24"+  00:27:20 =28,895  km/h

77  Vincent Soler  North Africa05h 09' 24"+  00:27:20 =28,895  km/h

78  Henk Faanhof  Holland05h 10' 09"+  00:28:05 =28,825  km/h


Withdrawls: 3
 RiderTeamReason
101   Pierre Molineris Sud EstDid not finish
109   Guy Lapébie Ouest-Sud OuestDid not finish
56   José Pérez SpainExceeded time limit
Todays birthdays.

1889 • Adolphe Landon
1890 • Jules Lebreton
1904 • Julien Grujon
1909 • Erich Metze
1926 • Giovanni Rossi
1928 • Serge Blusson
1928 • Alois Vansteenkiste
1931 • André Dupré
1934 • Alfred Rüegg
1962 • Francisco Espinosa
1962 • Paul Kimmage
1963 • Federico Muñoz
1966 • Andrea Tafi
1971 • Emmanuel Magnien
1973 • Paolo Savoldelli
1985 • Mikhail Ignatyev

 

Optimized for Chrome - Edge
and Opera browsers.